Time;durP1;ratioP1;P1;durP2;ratioP2;P2;SDS_P1;SDS_P2;PMS_P1;PMS_P2;Temp;Humidity;BMP_temperature;BMP_pressure;BME280_temperature;BME280_humidity;BME280_pressure;Samples;Min_cycle;Max_cycle;Signal;HPM_P1;HPM_P2
2022/11/05 00:10:06;;;;;;;7.32;2.53;;;22.90;42.30;;;;;;5014679;28;20223;-61
2022/11/05 00:18:13;;;;;;;6.28;2.25;;;22.90;42.50;;;;;;5015106;28;20283;-60
2022/11/05 00:20:43;;;;;;;7.68;2.50;;;22.90;42.50;;;;;;5014949;28;20208;-60
2022/11/05 00:26:02;;;;;;;17.75;3.55;;;22.90;42.40;;;;;;5015250;28;20192;-59
2022/11/05 00:28:34;;;;;;;15.18;3.03;;;22.90;42.40;;;;;;5014932;28;20580;-61
2022/11/05 00:31:08;;;;;;;9.25;2.53;;;22.70;42.70;;;;;;5014866;28;20196;-60
2022/11/05 00:33:39;;;;;;;15.80;3.15;;;22.50;42.80;;;;;;5014519;28;20278;-60
2022/11/05 00:36:11;;;;;;;16.75;3.78;;;22.40;43.00;;;;;;5014309;28;20222;-60
2022/11/05 00:38:42;;;;;;;12.68;2.78;;;22.20;43.50;;;;;;5014118;28;20225;-59
2022/11/05 00:41:12;;;;;;;13.95;3.22;;;22.10;43.70;;;;;;5014393;28;20695;-49
2022/11/05 00:46:32;;;;;;;10.52;2.50;;;21.80;43.80;;;;;;5014245;28;20203;-52
2022/11/05 00:52:54;;;;;;;10.18;2.95;;;21.70;44.20;;;;;;5014578;28;20196;-49
2022/11/05 00:54:40;;;;;;;9.63;2.92;;;21.70;44.30;;;;;;5014123;28;20201;-47
2022/11/05 00:57:11;;;;;;;6.68;2.58;;;21.70;44.30;;;;;;5014272;28;20192;-54
2022/11/05 00:59:41;;;;;;;8.75;3.15;;;21.70;44.30;;;;;;5014289;28;20232;-52
2022/11/05 01:02:14;;;;;;;7.80;2.88;;;21.70;44.30;;;;;;5014345;28;20192;-56
2022/11/05 01:04:45;;;;;;;11.63;3.05;;;21.80;44.30;;;;;;5013479;28;20197;-49
2022/11/05 01:07:15;;;;;;;9.25;2.92;;;21.80;44.20;;;;;;5013468;28;20216;-53
2022/11/05 01:09:46;;;;;;;7.50;2.70;;;21.90;44.20;;;;;;5013379;28;20232;-52
2022/11/05 01:12:17;;;;;;;5.18;2.10;;;21.90;44.10;;;;;;5014054;28;20668;-52
2022/11/05 01:14:47;;;;;;;8.88;2.83;;;21.90;44.70;;;;;;5014142;28;20215;-51
2022/11/05 01:17:20;;;;;;;6.30;2.30;;;22.00;44.10;;;;;;5014174;28;20203;-54
2022/11/05 01:19:51;;;;;;;7.10;2.63;;;22.00;44.10;;;;;;5014167;28;20239;-49
2022/11/05 01:22:21;;;;;;;8.95;2.55;;;22.00;44.00;;;;;;5014296;28;20204;-56
2022/11/05 01:24:52;;;;;;;10.48;2.60;;;22.10;44.00;;;;;;5014366;28;20201;-52
2022/11/05 01:27:23;;;;;;;7.40;2.63;;;22.10;43.90;;;;;;5013755;28;20225;-52
2022/11/05 01:29:54;;;;;;;8.15;2.50;;;22.10;43.90;;;;;;5013770;28;20594;-53
2022/11/05 01:32:29;;;;;;;8.23;2.33;;;22.10;43.90;;;;;;5013478;28;20201;-49
2022/11/05 01:35:00;;;;;;;6.47;2.20;;;22.10;43.80;;;;;;5013216;28;20214;-48
2022/11/05 01:37:30;;;;;;;7.47;2.25;;;22.20;43.80;;;;;;5013078;28;20777;-55
2022/11/05 01:40:01;;;;;;;8.77;2.55;;;22.20;43.70;;;;;;5012948;28;20221;-55
2022/11/05 01:42:34;;;;;;;8.52;2.53;;;22.20;43.70;;;;;;5015382;28;20299;-55
2022/11/05 01:45:13;;;;;;;5.10;1.90;;;22.20;43.60;;;;;;5013569;28;20201;-51
2022/11/05 01:48:08;;;;;;;6.13;2.38;;;22.30;43.50;;;;;;5013191;28;20224;-53
2022/11/05 01:50:43;;;;;;;8.82;2.28;;;22.30;43.50;;;;;;5013056;28;20197;-53
2022/11/05 01:53:26;;;;;;;10.30;2.63;;;22.30;43.50;;;;;;5013538;28;20196;-48
2022/11/05 01:56:02;;;;;;;6.95;2.28;;;22.30;43.50;;;;;;5012828;28;20211;-54
2022/11/05 01:58:47;;;;;;;7.55;1.95;;;22.40;43.50;;;;;;5012985;28;20216;-56
2022/11/05 02:01:19;;;;;;;6.25;2.03;;;22.40;43.50;;;;;;5013090;28;20621;-52
2022/11/05 02:03:55;;;;;;;7.60;2.40;;;22.40;43.40;;;;;;5013047;28;20197;-50
2022/11/05 02:06:26;;;;;;;8.05;2.33;;;22.40;43.40;;;;;;5013132;28;20647;-52
2022/11/05 02:09:02;;;;;;;8.80;2.45;;;22.40;43.40;;;;;;5012976;28;20676;-59
2022/11/05 02:11:33;;;;;;;8.75;2.60;;;22.40;43.40;;;;;;5012765;28;20588;-50
2022/11/05 02:14:03;;;;;;;6.45;2.35;;;22.40;43.30;;;;;;5012144;28;20196;-50
2022/11/05 02:16:41;;;;;;;8.32;2.58;;;22.40;43.20;;;;;;5011483;28;20204;-56
2022/11/05 02:19:50;;;;;;;4.70;1.85;;;22.40;43.30;;;;;;5011899;28;20593;-52
2022/11/05 02:23:03;;;;;;;8.43;2.42;;;22.40;43.20;;;;;;5012464;28;20200;-49
2022/11/05 02:26:06;;;;;;;6.60;2.28;;;22.50;43.20;;;;;;5002697;28;20200;-56
2022/11/05 02:28:59;;;;;;;6.63;2.25;;;22.50;43.20;;;;;;5010132;28;20427;-46
2022/11/05 02:31:36;;;;;;;5.28;2.25;;;22.50;43.20;;;;;;5012341;28;20204;-50
2022/11/05 02:34:13;;;;;;;5.40;2.05;;;22.50;43.10;;;;;;5014274;28;20197;-49
2022/11/05 02:36:51;;;;;;;5.63;2.13;;;22.50;43.20;;;;;;5012443;28;20207;-53
2022/11/05 02:39:37;;;;;;;5.70;1.85;;;22.50;43.20;;;;;;5012186;28;20217;-54
2022/11/05 02:42:17;;;;;;;11.15;2.22;;;22.50;43.20;;;;;;5012246;28;20197;-63
2022/11/05 02:44:56;;;;;;;7.88;2.22;;;22.40;43.00;;;;;;5011944;28;20657;-52
2022/11/05 02:47:39;;;;;;;11.77;2.63;;;22.30;43.10;;;;;;5012552;28;20690;-61
2022/11/05 02:50:18;;;;;;;9.65;2.65;;;22.20;43.20;;;;;;5012193;28;20608;-57
2022/11/05 02:52:59;;;;;;;7.88;2.60;;;22.10;43.30;;;;;;5012201;28;20188;-64
2022/11/05 02:55:35;;;;;;;10.10;2.30;;;22.10;43.40;;;;;;5012260;28;20660;-57
2022/11/05 02:58:09;;;;;;;10.07;2.65;;;22.10;43.40;;;;;;5012350;28;20196;-51
2022/11/05 03:00:48;;;;;;;10.65;2.70;;;22.10;43.50;;;;;;5012173;28;20569;-53
2022/11/05 03:03:29;;;;;;;7.82;2.28;;;22.10;43.50;;;;;;5011906;28;20192;-48
2022/11/05 03:06:14;;;;;;;6.80;2.58;;;22.10;43.60;;;;;;5011900;28;20200;-54
2022/11/05 03:09:19;;;;;;;8.70;2.55;;;22.10;43.60;;;;;;5011617;28;20229;-60
2022/11/05 03:11:59;;;;;;;8.27;2.60;;;22.10;43.60;;;;;;4966229;28;20200;-52
2022/11/05 03:14:41;;;;;;;8.57;2.40;;;22.10;43.60;;;;;;5011640;28;20200;-51
2022/11/05 03:17:21;;;;;;;7.65;2.47;;;22.10;43.60;;;;;;5011984;28;20566;-63
2022/11/05 03:20:03;;;;;;;7.63;2.50;;;22.10;43.60;;;;;;5011684;28;20304;-56
2022/11/05 03:22:39;;;;;;;5.82;2.13;;;22.10;43.60;;;;;;5011627;28;20283;-56
2022/11/05 03:25:14;;;;;;;6.65;2.10;;;22.10;43.50;;;;;;5011475;28;20666;-65
2022/11/05 03:27:48;;;;;;;4.82;1.50;;;22.10;43.50;;;;;;5011610;28;20258;-52
2022/11/05 03:30:20;;;;;;;5.38;2.15;;;22.10;43.40;;;;;;5012401;28;20230;-53
2022/11/05 03:32:56;;;;;;;6.32;2.40;;;22.10;43.40;;;;;;5012037;28;20212;-61
2022/11/05 03:35:32;;;;;;;6.35;2.53;;;22.10;43.30;;;;;;5013823;28;20191;-55
2022/11/05 03:38:06;;;;;;;6.10;2.17;;;22.10;43.40;;;;;;5011387;28;20208;-59
2022/11/05 03:40:40;;;;;;;4.57;1.80;;;22.10;43.40;;;;;;5011254;28;20192;-49
2022/11/05 03:43:11;;;;;;;7.00;2.47;;;22.10;43.40;;;;;;5011192;28;20247;-58
2022/11/05 03:45:46;;;;;;;5.63;2.10;;;22.10;43.40;;;;;;5011558;28;20296;-53
2022/11/05 03:48:19;;;;;;;4.78;1.80;;;22.10;43.40;;;;;;5011430;28;20254;-53
2022/11/05 03:51:01;;;;;;;4.80;2.33;;;22.10;43.30;;;;;;5011478;28;20580;-55
2022/11/05 03:53:35;;;;;;;8.40;2.17;;;22.10;43.30;;;;;;5011415;28;20210;-55
2022/11/05 03:56:12;;;;;;;6.65;2.13;;;22.10;43.30;;;;;;5011316;28;20656;-53
2022/11/05 03:58:46;;;;;;;6.03;2.30;;;22.10;43.30;;;;;;5010991;28;20216;-51
2022/11/05 04:01:17;;;;;;;7.32;2.20;;;22.00;43.30;;;;;;5011319;28;20659;-52
2022/11/05 04:03:48;;;;;;;8.90;2.47;;;22.10;43.20;;;;;;5011419;28;20200;-57
2022/11/05 04:14:43;;;;;;;6.05;2.05;;;22.10;43.10;;;;;;4991525;28;20192;-57
2022/11/05 04:17:13;;;;;;;5.97;1.75;;;22.10;43.10;;;;;;4991503;28;20562;-48
2022/11/05 04:25:21;;;;;;;5.80;2.22;;;22.00;43.00;;;;;;5011517;28;20204;-53
2022/11/05 04:27:52;;;;;;;6.63;2.38;;;22.10;43.10;;;;;;5023095;23;20722;-46
2022/11/05 04:30:21;;;;;;;6.55;2.25;;;22.00;43.10;;;;;;5010624;28;20219;-51
2022/11/05 04:33:06;;;;;;;6.63;2.30;;;22.00;43.00;;;;;;5010889;28;20608;-48
2022/11/05 04:35:38;;;;;;;5.50;2.20;;;22.00;43.00;;;;;;5011512;28;20688;-49
2022/11/05 04:38:13;;;;;;;6.57;2.72;;;22.00;43.00;;;;;;5011205;28;20197;-45
2022/11/05 04:40:44;;;;;;;5.97;2.45;;;22.00;43.00;;;;;;5012995;28;20200;-49
2022/11/05 04:43:16;;;;;;;6.03;2.42;;;22.10;43.00;;;;;;5014203;28;20661;-46
2022/11/05 04:45:47;;;;;;;4.88;2.35;;;22.00;43.00;;;;;;5014392;28;20644;-49
2022/11/05 04:48:19;;;;;;;4.70;2.45;;;22.00;43.00;;;;;;5014972;28;20225;-52
2022/11/05 04:50:49;;;;;;;6.75;2.58;;;22.00;43.00;;;;;;5033598;28;20254;-45
2022/11/05 04:53:22;;;;;;;5.45;2.42;;;22.00;43.00;;;;;;5034065;28;20202;-52
2022/11/05 04:55:53;;;;;;;6.30;2.33;;;22.00;43.00;;;;;;5033493;28;20547;-50
2022/11/05 04:58:24;;;;;;;4.95;2.22;;;22.00;43.00;;;;;;5033685;28;20212;-45
2022/11/05 05:00:55;;;;;;;5.03;2.55;;;22.00;43.00;;;;;;5034045;28;20200;-50
2022/11/05 05:03:25;;;;;;;5.72;2.65;;;22.00;43.10;;;;;;5033690;28;20211;-44
2022/11/05 05:05:56;;;;;;;5.90;2.47;;;22.00;43.00;;;;;;5033748;28;20203;-48
2022/11/05 05:08:29;;;;;;;5.22;2.60;;;22.00;43.00;;;;;;5017308;28;20232;-45
2022/11/05 05:11:04;;;;;;;7.78;2.20;;;22.00;43.00;;;;;;5014194;28;20212;-46
2022/11/05 05:13:35;;;;;;;5.90;2.55;;;22.00;43.00;;;;;;5014203;28;20788;-47
2022/11/05 05:16:09;;;;;;;5.18;2.53;;;22.00;42.90;;;;;;5013969;28;20195;-48
2022/11/05 05:18:40;;;;;;;7.45;2.80;;;22.00;43.00;;;;;;5014833;28;20299;-47
2022/11/05 05:24:00;;;;;;;6.55;2.60;;;21.90;42.90;;;;;;5034260;28;20371;-45
2022/11/05 05:26:31;;;;;;;6.43;2.08;;;22.00;42.90;;;;;;5034174;28;20198;-48
2022/11/05 05:29:05;;;;;;;5.63;2.38;;;21.90;42.90;;;;;;5033513;28;20255;-44
2022/11/05 05:31:36;;;;;;;5.88;2.38;;;21.90;43.00;;;;;;5033490;28;20575;-44
2022/11/05 05:34:07;;;;;;;8.43;2.83;;;21.90;42.90;;;;;;5030390;28;20196;-47
2022/11/05 05:36:38;;;;;;;5.32;2.10;;;21.90;43.00;;;;;;5013544;28;20193;-44
2022/11/05 05:39:11;;;;;;;6.20;2.70;;;21.90;43.00;;;;;;5013815;28;20304;-46
2022/11/05 05:41:42;;;;;;;6.13;2.50;;;21.90;43.00;;;;;;5013834;28;20201;-43
2022/11/05 05:44:13;;;;;;;6.72;2.40;;;21.90;43.00;;;;;;5013748;28;20197;-47
2022/11/05 05:46:43;;;;;;;6.55;2.63;;;21.90;43.00;;;;;;5013736;28;20201;-44
2022/11/05 05:49:16;;;;;;;4.72;2.17;;;21.90;43.00;;;;;;5019393;28;20235;-45
2022/11/05 05:51:47;;;;;;;6.22;2.58;;;21.90;43.00;;;;;;5032320;28;20192;-45
2022/11/05 05:54:19;;;;;;;5.03;2.35;;;21.90;43.00;;;;;;5032968;28;20196;-45
2022/11/05 05:56:50;;;;;;;5.97;2.40;;;21.90;43.00;;;;;;5033039;28;20192;-48
2022/11/05 05:59:21;;;;;;;4.20;2.33;;;21.90;43.00;;;;;;5033163;28;20227;-44
2022/11/05 06:01:51;;;;;;;5.80;1.92;;;21.90;43.10;;;;;;5033090;28;20196;-44
2022/11/05 06:04:22;;;;;;;6.30;2.55;;;21.80;43.00;;;;;;5032965;28;20660;-44
2022/11/05 06:06:53;;;;;;;5.72;2.30;;;21.80;43.00;;;;;;5028969;28;20185;-47
2022/11/05 06:09:26;;;;;;;5.63;2.42;;;21.80;43.00;;;;;;5012850;28;20228;-45
2022/11/05 06:11:56;;;;;;;5.95;2.40;;;21.80;43.00;;;;;;5012954;28;20203;-45
2022/11/05 06:14:27;;;;;;;4.70;2.55;;;21.80;43.00;;;;;;5012660;28;20204;-47
2022/11/05 06:16:58;;;;;;;4.78;2.00;;;21.80;43.10;;;;;;5012567;28;20203;-44
2022/11/05 06:19:29;;;;;;;5.82;2.90;;;21.80;43.00;;;;;;5020882;28;20338;-45
2022/11/05 06:22:00;;;;;;;6.13;2.35;;;21.80;43.00;;;;;;5018496;28;20204;-48
2022/11/05 06:24:33;;;;;;;6.07;1.98;;;21.80;43.00;;;;;;5013310;28;20208;-45
2022/11/05 06:27:03;;;;;;;5.15;1.98;;;21.70;43.00;;;;;;5013118;28;20212;-52
2022/11/05 06:29:34;;;;;;;4.43;1.90;;;21.70;43.00;;;;;;5012985;28;20237;-58
2022/11/05 06:32:05;;;;;;;4.65;2.35;;;21.70;43.00;;;;;;5012298;28;20651;-57
2022/11/05 06:34:36;;;;;;;5.15;2.30;;;21.70;43.00;;;;;;5012252;28;20205;-55
2022/11/05 06:37:12;;;;;;;5.90;2.25;;;21.70;43.10;;;;;;5010734;28;20251;-57
2022/11/05 06:39:45;;;;;;;4.03;1.92;;;21.70;43.10;;;;;;5011874;28;20224;-58
2022/11/05 06:42:16;;;;;;;6.10;2.25;;;21.70;43.10;;;;;;5011781;28;20200;-58
2022/11/05 06:44:46;;;;;;;6.28;2.60;;;21.60;43.00;;;;;;5011884;28;20691;-57
2022/11/05 06:47:17;;;;;;;5.63;2.05;;;21.70;43.00;;;;;;5012208;28;20192;-53
2022/11/05 06:49:48;;;;;;;5.57;2.50;;;21.60;43.00;;;;;;5022637;28;20242;-57
2022/11/05 06:52:19;;;;;;;6.45;2.38;;;21.60;43.10;;;;;;5031931;28;20667;-56
2022/11/05 06:54:52;;;;;;;6.07;2.20;;;21.60;43.10;;;;;;5032123;28;20652;-58
2022/11/05 06:57:22;;;;;;;5.20;2.30;;;21.60;43.10;;;;;;5031981;28;20258;-50
2022/11/05 06:59:53;;;;;;;5.18;2.10;;;21.60;43.10;;;;;;5031703;28;20216;-51
2022/11/05 07:02:24;;;;;;;5.30;2.40;;;21.60;43.10;;;;;;5031440;28;20192;-49
2022/11/05 07:04:55;;;;;;;5.82;2.25;;;21.60;43.10;;;;;;5031720;28;20196;-53
2022/11/05 07:07:26;;;;;;;5.32;2.15;;;21.60;43.20;;;;;;5023863;28;20776;-51
2022/11/05 07:09:59;;;;;;;4.85;2.47;;;21.50;43.10;;;;;;5011718;28;20243;-52
2022/11/05 07:12:29;;;;;;;6.60;2.60;;;21.50;43.10;;;;;;5011885;28;20558;-47
2022/11/05 07:15:00;;;;;;;5.45;2.10;;;21.50;43.10;;;;;;5011913;28;20208;-50
2022/11/05 07:17:31;;;;;;;4.68;2.30;;;21.50;43.20;;;;;;5011552;28;20208;-49
2022/11/05 07:20:02;;;;;;;4.43;2.40;;;21.50;43.10;;;;;;5023713;28;20246;-53
2022/11/05 07:22:33;;;;;;;4.40;2.20;;;21.50;43.10;;;;;;5031320;28;20207;-49
2022/11/05 07:25:06;;;;;;;5.72;2.33;;;21.50;43.20;;;;;;5031144;28;20219;-48
2022/11/05 07:27:40;;;;;;;5.07;2.40;;;21.50;43.20;;;;;;5031040;28;20722;-49
2022/11/05 07:30:13;;;;;;;5.05;2.30;;;21.50;43.20;;;;;;5037294;23;20262;-48
2022/11/05 07:32:44;;;;;;;3.42;2.25;;;21.40;43.10;;;;;;5011828;28;20208;-50
2022/11/05 07:35:15;;;;;;;4.60;2.05;;;21.40;43.10;;;;;;5011433;28;20668;-52
2022/11/05 07:37:46;;;;;;;5.22;1.85;;;21.40;43.20;;;;;;5011343;28;20211;-49
2022/11/05 07:40:20;;;;;;;4.63;2.30;;;21.40;43.10;;;;;;5011534;28;20688;-48
2022/11/05 07:42:54;;;;;;;6.18;2.10;;;21.40;43.10;;;;;;5013912;28;20232;-52
2022/11/05 07:45:26;;;;;;;4.88;2.03;;;21.40;43.10;;;;;;5011753;28;20192;-58
2022/11/05 07:48:00;;;;;;;4.05;2.22;;;21.40;43.20;;;;;;5011574;28;20656;-49
2022/11/05 07:50:33;;;;;;;4.13;1.98;;;21.40;43.20;;;;;;5011604;28;20590;-52
2022/11/05 07:53:05;;;;;;;4.38;2.10;;;21.40;43.10;;;;;;5011543;28;20663;-60
2022/11/05 07:55:39;;;;;;;4.88;2.20;;;21.40;43.10;;;;;;5011573;28;20197;-57
2022/11/05 07:58:10;;;;;;;3.95;2.00;;;21.40;43.10;;;;;;5011354;28;20406;-56
2022/11/05 08:00:41;;;;;;;3.97;2.30;;;21.30;43.10;;;;;;5011178;28;20205;-60
2022/11/05 08:03:15;;;;;;;6.18;2.35;;;21.30;43.10;;;;;;5011000;28;20196;-50
2022/11/05 08:05:47;;;;;;;5.47;2.20;;;21.30;43.10;;;;;;5011374;28;20280;-52
2022/11/05 08:08:20;;;;;;;4.97;2.05;;;21.30;43.10;;;;;;5011159;28;20567;-54
2022/11/05 08:10:55;;;;;;;5.38;2.38;;;21.30;43.10;;;;;;5011284;28;20197;-55
2022/11/05 08:13:26;;;;;;;4.45;2.30;;;21.30;43.10;;;;;;5011201;28;20203;-47
2022/11/05 08:15:59;;;;;;;4.97;2.13;;;21.30;43.10;;;;;;5013839;28;20202;-51
2022/11/05 08:18:32;;;;;;;4.85;2.10;;;21.30;43.10;;;;;;5015256;28;20220;-51
2022/11/05 08:21:04;;;;;;;5.75;2.10;;;21.30;43.10;;;;;;4995522;28;20198;-69
2022/11/05 08:23:35;;;;;;;5.45;2.00;;;21.20;43.10;;;;;;4995616;28;20209;-68
2022/11/05 08:26:08;;;;;;;4.85;1.95;;;21.20;43.20;;;;;;4995234;28;20232;-69
2022/11/05 08:28:39;;;;;;;5.68;2.03;;;21.20;43.10;;;;;;4995166;28;20701;-69
2022/11/05 08:31:10;;;;;;;4.07;1.88;;;21.20;43.10;;;;;;5050439;23;20223;-53
2022/11/05 08:33:41;;;;;;;4.95;2.05;;;21.20;43.20;;;;;;5054179;28;20257;-44
2022/11/05 08:36:11;;;;;;;4.72;2.10;;;21.20;43.80;;;;;;5054163;28;20647;-46
2022/11/05 08:38:42;;;;;;;2.70;1.70;;;21.20;43.20;;;;;;5049470;28;20582;-47
2022/11/05 08:41:15;;;;;;;4.07;2.00;;;21.10;43.20;;;;;;5034026;28;20195;-49
2022/11/05 08:43:45;;;;;;;5.55;2.20;;;21.10;43.20;;;;;;5033858;28;20202;-52
2022/11/05 08:46:16;;;;;;;5.22;1.98;;;21.10;43.20;;;;;;5034248;28;20200;-46
2022/11/05 08:48:47;;;;;;;5.40;2.20;;;21.10;43.20;;;;;;5031887;28;20216;-49
2022/11/05 08:51:17;;;;;;;4.93;2.28;;;21.10;43.20;;;;;;5014247;28;20219;-47
2022/11/05 08:53:48;;;;;;;5.55;2.17;;;21.10;43.20;;;;;;5014156;28;20211;-50
2022/11/05 08:56:22;;;;;;;5.43;2.47;;;21.10;43.20;;;;;;5014032;28;20192;-47
2022/11/05 08:58:52;;;;;;;4.97;2.08;;;21.10;43.20;;;;;;5014333;28;20758;-52
2022/11/05 09:01:23;;;;;;;4.40;2.10;;;21.10;43.20;;;;;;5014255;28;20732;-47
2022/11/05 09:03:54;;;;;;;3.97;2.00;;;21.10;43.20;;;;;;5014187;28;20543;-45
2022/11/05 09:06:25;;;;;;;3.55;1.50;;;21.00;43.20;;;;;;5014344;28;20200;-43
2022/11/05 09:08:56;;;;;;;4.43;2.42;;;21.00;43.80;;;;;;4994784;28;20768;-47
2022/11/05 09:11:29;;;;;;;5.10;1.77;;;21.00;43.20;;;;;;4994574;28;20205;-45
2022/11/05 09:13:59;;;;;;;4.95;1.77;;;21.00;43.30;;;;;;4994076;28;20680;-46
2022/11/05 09:16:33;;;;;;;9.70;2.17;;;21.00;43.30;;;;;;4992869;28;20216;-43
2022/11/05 09:19:03;;;;;;;3.80;1.98;;;21.00;43.70;;;;;;5010380;28;20213;-43
2022/11/05 09:21:35;;;;;;;4.57;2.47;;;21.00;44.00;;;;;;5013187;28;20755;-44
2022/11/05 09:24:05;;;;;;;5.40;2.47;;;21.00;44.30;;;;;;5022426;28;20668;-43
2022/11/05 09:26:38;;;;;;;4.13;2.05;;;21.10;44.70;;;;;;5012351;28;20197;-43
2022/11/05 09:29:09;;;;;;;3.65;1.73;;;21.00;44.50;;;;;;5012824;28;20229;-44
2022/11/05 09:31:42;;;;;;;6.25;1.90;;;21.10;44.50;;;;;;5025786;23;20232;-61
2022/11/05 09:34:12;;;;;;;3.45;2.05;;;21.00;44.40;;;;;;5010196;28;20204;-47
2022/11/05 09:36:43;;;;;;;6.57;1.90;;;21.00;44.30;;;;;;5009109;28;20208;-50
2022/11/05 09:39:14;;;;;;;4.65;2.03;;;21.00;44.30;;;;;;5018077;28;20857;-52
2022/11/05 09:41:47;;;;;;;3.97;1.63;;;21.00;44.30;;;;;;5012782;28;20197;-48
2022/11/05 09:44:21;;;;;;;5.00;1.85;;;21.00;44.30;;;;;;5012502;28;20196;-48
2022/11/05 09:46:58;;;;;;;4.30;2.30;;;21.00;44.30;;;;;;5012236;28;20604;-55
2022/11/05 09:49:33;;;;;;;3.50;2.08;;;21.00;44.30;;;;;;5012059;28;20221;-48
2022/11/05 09:52:05;;;;;;;5.05;2.10;;;21.00;44.20;;;;;;5013074;28;20197;-69
2022/11/05 09:54:36;;;;;;;3.55;1.90;;;21.00;44.20;;;;;;4997259;28;20193;-60
2022/11/05 09:57:14;;;;;;;5.53;2.15;;;20.90;44.20;;;;;;5012628;28;20192;-67
2022/11/05 09:59:48;;;;;;;5.60;2.10;;;20.90;44.40;;;;;;5012256;28;20224;-65
2022/11/05 10:02:24;;;;;;;3.33;1.85;;;20.90;44.10;;;;;;5011739;28;20291;-61
2022/11/05 10:04:58;;;;;;;4.05;1.80;;;20.90;44.10;;;;;;5012439;28;20694;-56
2022/11/05 10:07:31;;;;;;;4.45;2.05;;;20.90;44.10;;;;;;5011039;28;20187;-65
2022/11/05 10:10:04;;;;;;;3.50;1.67;;;20.90;44.10;;;;;;5011278;28;20231;-64
2022/11/05 10:12:41;;;;;;;5.70;2.00;;;20.90;44.10;;;;;;5011711;28;20207;-66
2022/11/05 10:15:23;;;;;;;4.72;2.00;;;20.80;44.10;;;;;;5012307;28;20560;-65
2022/11/05 10:17:57;;;;;;;3.40;1.88;;;20.80;44.10;;;;;;5009478;28;20279;-67
2022/11/05 10:20:33;;;;;;;3.80;1.60;;;20.80;44.10;;;;;;5011090;28;20228;-67
2022/11/05 10:23:11;;;;;;;5.13;1.73;;;20.80;44.10;;;;;;5012533;28;20594;-66
2022/11/05 10:25:43;;;;;;;3.05;1.75;;;20.80;44.10;;;;;;5003591;28;20192;-67
2022/11/05 10:28:20;;;;;;;3.47;1.90;;;20.80;44.10;;;;;;5012088;28;20192;-63
2022/11/05 10:30:53;;;;;;;3.08;1.50;;;20.80;44.10;;;;;;5011999;28;20224;-66
2022/11/05 10:33:35;;;;;;;3.17;1.70;;;20.70;44.10;;;;;;5011730;28;20207;-67
2022/11/05 10:36:09;;;;;;;4.40;1.60;;;20.70;44.00;;;;;;5011024;28;20188;-62
2022/11/05 10:38:40;;;;;;;2.67;1.67;;;20.70;44.10;;;;;;5011257;28;20227;-66
2022/11/05 10:41:27;;;;;;;4.28;1.88;;;20.70;44.00;;;;;;5013177;28;20197;-68
2022/11/05 10:44:08;;;;;;;3.05;1.80;;;20.70;44.10;;;;;;5008527;28;20203;-70
2022/11/05 10:46:43;;;;;;;3.10;1.70;;;20.70;44.00;;;;;;5009788;28;20196;-63
2022/11/05 10:49:26;;;;;;;4.22;1.92;;;20.70;44.00;;;;;;5010926;28;20220;-67
2022/11/05 10:51:59;;;;;;;5.28;2.15;;;20.60;44.00;;;;;;5011251;28;20204;-68
2022/11/05 10:54:37;;;;;;;4.10;2.00;;;20.60;44.00;;;;;;5010984;28;20229;-68
2022/11/05 10:57:30;;;;;;;4.15;1.80;;;20.60;44.00;;;;;;4991239;28;20199;-53
2022/11/05 11:00:29;;;;;;;4.18;1.60;;;20.60;44.10;;;;;;4995637;28;20205;-67
2022/11/05 11:03:01;;;;;;;3.03;1.40;;;20.60;44.10;;;;;;5010796;28;20200;-66
2022/11/05 11:05:36;;;;;;;3.50;1.73;;;20.60;44.00;;;;;;5010895;28;20189;-57
2022/11/05 11:08:24;;;;;;;4.43;1.83;;;20.60;44.00;;;;;;5010881;28;20203;-63
2022/11/05 11:10:59;;;;;;;3.80;1.63;;;20.60;44.00;;;;;;5010885;28;20231;-58
2022/11/05 11:13:47;;;;;;;5.25;2.00;;;20.60;44.00;;;;;;5030057;28;20204;-58
2022/11/05 11:16:24;;;;;;;4.45;2.13;;;20.60;44.00;;;;;;5017294;28;20200;-67
2022/11/05 11:18:59;;;;;;;2.78;1.60;;;20.50;44.00;;;;;;5010076;28;20231;-67
2022/11/05 11:21:32;;;;;;;5.65;1.80;;;20.60;44.00;;;;;;5010974;28;20681;-66
2022/11/05 11:24:05;;;;;;;2.50;1.40;;;20.50;44.00;;;;;;5011516;28;20271;-67
2022/11/05 11:26:37;;;;;;;3.13;1.50;;;20.50;44.00;;;;;;5011910;28;20192;-67
2022/11/05 11:29:15;;;;;;;3.10;1.67;;;20.50;44.10;;;;;;5011768;28;20213;-64
2022/11/05 11:31:48;;;;;;;3.08;1.60;;;20.50;44.10;;;;;;5012270;28;20228;-63
2022/11/05 11:34:24;;;;;;;2.92;1.58;;;20.50;44.10;;;;;;5012371;28;20216;-67
2022/11/05 11:36:58;;;;;;;3.10;1.65;;;20.50;44.10;;;;;;5012533;28;20196;-58
2022/11/05 11:39:31;;;;;;;3.97;1.58;;;20.40;44.10;;;;;;5012460;28;20220;-57
2022/11/05 11:42:06;;;;;;;2.72;1.60;;;20.40;44.00;;;;;;5011704;28;20197;-64
2022/11/05 11:44:43;;;;;;;2.70;1.55;;;20.50;44.10;;;;;;5011756;28;20204;-61
2022/11/05 11:47:17;;;;;;;3.25;1.90;;;20.40;44.10;;;;;;5011756;28;20448;-65
2022/11/05 11:49:50;;;;;;;2.00;1.30;;;20.40;44.00;;;;;;5012231;28;20224;-68
2022/11/05 11:52:27;;;;;;;3.40;1.52;;;20.40;44.00;;;;;;5015854;28;20207;-64
2022/11/05 11:55:21;;;;;;;4.22;1.83;;;20.40;44.00;;;;;;5015846;28;20648;-68
2022/11/05 11:57:56;;;;;;;3.25;1.60;;;20.40;44.10;;;;;;5020315;28;20648;-67
2022/11/05 12:00:28;;;;;;;3.75;1.48;;;20.40;44.10;;;;;;5035265;28;20780;-67
2022/11/05 12:03:27;;;;;;;2.92;1.25;;;20.40;44.10;;;;;;5035147;28;20203;-70
2022/11/05 12:06:05;;;;;;;3.13;1.58;;;20.30;44.10;;;;;;5022675;28;20200;-70
2022/11/05 12:08:46;;;;;;;4.10;1.58;;;20.30;44.00;;;;;;5014894;28;20223;-66
2022/11/05 12:11:24;;;;;;;2.40;1.30;;;20.30;44.00;;;;;;5015140;28;20307;-68
2022/11/05 12:14:03;;;;;;;3.33;1.52;;;20.30;44.00;;;;;;5015067;28;20287;-68
2022/11/05 12:17:02;;;;;;;3.00;1.50;;;20.30;44.00;;;;;;5015406;28;20201;-67
2022/11/05 12:19:56;;;;;;;2.85;1.50;;;20.30;44.00;;;;;;5015408;28;20220;-65
2022/11/05 12:22:36;;;;;;;2.83;1.45;;;20.30;44.00;;;;;;5014817;28;20652;-68
2022/11/05 12:25:24;;;;;;;3.10;1.60;;;20.30;44.00;;;;;;5014536;28;20250;-67
2022/11/05 12:28:14;;;;;;;3.10;1.40;;;20.30;44.00;;;;;;5014542;28;20201;-72
2022/11/05 12:30:54;;;;;;;3.40;1.50;;;20.20;44.00;;;;;;5015157;28;20235;-71
2022/11/05 12:33:44;;;;;;;3.20;1.40;;;20.30;44.10;;;;;;5014657;28;20572;-67
2022/11/05 12:36:34;;;;;;;3.83;1.58;;;20.20;44.00;;;;;;5014579;28;20204;-64
2022/11/05 12:39:30;;;;;;;2.58;1.33;;;20.20;44.00;;;;;;5024507;28;20220;-68
2022/11/05 12:42:06;;;;;;;2.20;1.40;;;20.20;44.10;;;;;;5034706;28;20226;-67
2022/11/05 12:44:51;;;;;;;3.03;1.42;;;20.20;44.00;;;;;;5034199;28;20196;-69
2022/11/05 12:47:36;;;;;;;3.03;1.13;;;20.20;44.00;;;;;;5033808;28;20674;-68
2022/11/05 12:50:18;;;;;;;3.13;1.45;;;20.20;44.00;;;;;;5020948;28;20231;-69
2022/11/05 12:53:14;;;;;;;2.75;1.48;;;20.20;43.90;;;;;;5014541;28;20653;-65
2022/11/05 12:55:48;;;;;;;2.83;1.35;;;20.20;44.00;;;;;;5014160;28;20189;-69
2022/11/05 12:58:25;;;;;;;2.20;1.40;;;20.20;43.90;;;;;;5014092;28;20722;-63
2022/11/05 13:01:05;;;;;;;2.70;1.35;;;20.20;44.00;;;;;;5013821;28;20612;-72
2022/11/05 13:03:42;;;;;;;2.83;1.40;;;20.20;44.00;;;;;;5014347;28;20201;-67
2022/11/05 13:06:15;;;;;;;3.50;1.45;;;20.20;44.10;;;;;;5014063;28;20215;-69
2022/11/05 13:08:56;;;;;;;3.90;1.40;;;20.10;44.00;;;;;;5014088;28;20275;-73
2022/11/05 13:11:34;;;;;;;2.45;1.27;;;20.10;44.10;;;;;;5014268;28;20552;-66
2022/11/05 13:14:12;;;;;;;2.78;1.25;;;20.10;44.00;;;;;;5014361;28;20201;-73
2022/11/05 13:16:47;;;;;;;2.47;1.20;;;20.10;44.00;;;;;;5013863;28;20678;-66
2022/11/05 13:19:26;;;;;;;3.33;1.45;;;20.10;44.00;;;;;;5013120;28;20227;-69
2022/11/05 13:22:06;;;;;;;3.45;1.50;;;20.10;44.00;;;;;;5013672;28;20252;-65
2022/11/05 13:24:41;;;;;;;1.70;1.13;;;20.10;44.00;;;;;;5013929;28;20196;-69
2022/11/05 13:27:40;;;;;;;2.45;1.25;;;20.10;44.00;;;;;;5013533;28;20192;-69
2022/11/05 13:30:18;;;;;;;3.15;1.42;;;20.10;44.00;;;;;;5013682;28;20247;-67
2022/11/05 13:32:55;;;;;;;1.45;1.08;;;20.00;43.90;;;;;;5013412;28;20200;-63
2022/11/05 13:35:30;;;;;;;2.53;1.35;;;20.10;44.00;;;;;;5013837;28;20666;-71
2022/11/05 13:41:20;;;;;;;2.10;1.20;;;20.00;44.00;;;;;;5013952;28;20311;-68
2022/11/05 13:44:14;;;;;;;2.58;1.35;;;20.00;44.00;;;;;;5013772;28;20553;-62
2022/11/05 13:47:06;;;;;;;2.20;1.30;;;20.00;44.00;;;;;;5013503;28;20197;-67
2022/11/05 13:49:52;;;;;;;2.53;1.33;;;20.00;44.00;;;;;;5013352;28;20711;-69
2022/11/05 13:52:44;;;;;;;2.45;1.20;;;20.00;44.00;;;;;;5013621;28;20337;-67
2022/11/05 13:55:53;;;;;;;1.48;1.08;;;20.00;44.00;;;;;;5013459;28;20201;-67
2022/11/05 13:58:52;;;;;;;2.45;1.13;;;20.00;44.00;;;;;;5013803;28;20197;-65
2022/11/05 14:01:42;;;;;;;2.22;1.20;;;20.00;43.90;;;;;;4987031;28;20237;-69
2022/11/05 14:04:27;;;;;;;1.63;1.15;;;19.90;43.90;;;;;;4993694;28;20193;-68
2022/11/05 14:07:09;;;;;;;2.55;1.40;;;20.00;44.00;;;;;;4994659;28;20587;-70
2022/11/05 14:09:41;;;;;;;2.28;1.30;;;19.90;44.00;;;;;;5012334;28;20217;-68
2022/11/05 14:12:26;;;;;;;2.85;1.40;;;19.90;44.00;;;;;;5012346;28;20221;-61